sensor_id;sensor_type;location;lat;lon;timestamp;P1;durP1;ratioP1;P2;durP2;ratioP2
34767;SDS011;21755;43.608;1.236;2022-10-30T00:00:19;26.92;;;14.02;;
34767;SDS011;21755;43.608;1.236;2022-10-30T00:02:46;28.38;;;13.60;;
34767;SDS011;21755;43.608;1.236;2022-10-30T00:05:14;33.20;;;14.48;;
34767;SDS011;21755;43.608;1.236;2022-10-30T00:07:41;32.72;;;14.93;;
34767;SDS011;21755;43.608;1.236;2022-10-30T00:10:07;28.67;;;14.85;;
34767;SDS011;21755;43.608;1.236;2022-10-30T00:12:34;29.85;;;14.77;;
34767;SDS011;21755;43.608;1.236;2022-10-30T00:15:00;38.35;;;14.57;;
34767;SDS011;21755;43.608;1.236;2022-10-30T00:17:27;34.15;;;13.88;;
34767;SDS011;21755;43.608;1.236;2022-10-30T00:19:53;38.42;;;14.38;;
34767;SDS011;21755;43.608;1.236;2022-10-30T00:22:19;33.85;;;12.65;;
34767;SDS011;21755;43.608;1.236;2022-10-30T00:24:45;34.42;;;14.32;;
34767;SDS011;21755;43.608;1.236;2022-10-30T00:27:11;31.00;;;13.50;;
34767;SDS011;21755;43.608;1.236;2022-10-30T00:29:37;32.78;;;12.98;;
34767;SDS011;21755;43.608;1.236;2022-10-30T00:32:03;36.40;;;14.00;;
34767;SDS011;21755;43.608;1.236;2022-10-30T00:34:29;43.25;;;14.77;;
34767;SDS011;21755;43.608;1.236;2022-10-30T00:36:54;36.42;;;13.15;;
34767;SDS011;21755;43.608;1.236;2022-10-30T00:39:20;36.17;;;14.10;;
34767;SDS011;21755;43.608;1.236;2022-10-30T00:41:46;37.13;;;14.90;;
34767;SDS011;21755;43.608;1.236;2022-10-30T00:47:00;45.47;;;13.57;;
34767;SDS011;21755;43.608;1.236;2022-10-30T00:49:32;41.08;;;14.18;;
34767;SDS011;21755;43.608;1.236;2022-10-30T00:52:02;34.05;;;13.85;;
34767;SDS011;21755;43.608;1.236;2022-10-30T00:54:32;41.17;;;13.68;;
34767;SDS011;21755;43.608;1.236;2022-10-30T00:56:59;33.38;;;14.05;;
34767;SDS011;21755;43.608;1.236;2022-10-30T00:59:29;26.25;;;12.93;;
34767;SDS011;21755;43.608;1.236;2022-10-30T01:01:57;34.50;;;14.63;;
34767;SDS011;21755;43.608;1.236;2022-10-30T01:04:26;38.72;;;13.73;;
34767;SDS011;21755;43.608;1.236;2022-10-30T01:06:53;41.17;;;13.82;;
34767;SDS011;21755;43.608;1.236;2022-10-30T01:09:19;33.08;;;13.95;;
34767;SDS011;21755;43.608;1.236;2022-10-30T01:11:46;26.27;;;12.35;;
34767;SDS011;21755;43.608;1.236;2022-10-30T01:14:13;28.30;;;13.23;;
34767;SDS011;21755;43.608;1.236;2022-10-30T01:22:14;32.97;;;13.77;;
34767;SDS011;21755;43.608;1.236;2022-10-30T01:38:15;31.63;;;13.02;;
34767;SDS011;21755;43.608;1.236;2022-10-30T01:40:46;34.33;;;13.52;;
34767;SDS011;21755;43.608;1.236;2022-10-30T01:43:12;42.25;;;13.35;;
34767;SDS011;21755;43.608;1.236;2022-10-30T01:45:47;34.85;;;14.43;;
34767;SDS011;21755;43.608;1.236;2022-10-30T01:53:53;42.20;;;13.73;;
34767;SDS011;21755;43.608;1.236;2022-10-30T01:56:41;32.95;;;13.05;;
34767;SDS011;21755;43.608;1.236;2022-10-30T01:59:17;40.22;;;13.18;;
34767;SDS011;21755;43.608;1.236;2022-10-30T02:01:57;36.38;;;14.27;;
34767;SDS011;21755;43.608;1.236;2022-10-30T02:04:23;34.17;;;13.90;;
34767;SDS011;21755;43.608;1.236;2022-10-30T02:06:49;36.90;;;15.63;;
34767;SDS011;21755;43.608;1.236;2022-10-30T02:09:15;37.13;;;13.50;;
34767;SDS011;21755;43.608;1.236;2022-10-30T02:11:41;27.92;;;13.60;;
34767;SDS011;21755;43.608;1.236;2022-10-30T02:14:10;35.75;;;13.27;;
34767;SDS011;21755;43.608;1.236;2022-10-30T02:16:41;32.50;;;13.20;;
34767;SDS011;21755;43.608;1.236;2022-10-30T02:19:12;31.02;;;13.93;;
34767;SDS011;21755;43.608;1.236;2022-10-30T02:21:37;32.80;;;13.43;;
34767;SDS011;21755;43.608;1.236;2022-10-30T02:24:04;39.58;;;13.05;;
34767;SDS011;21755;43.608;1.236;2022-10-30T02:26:30;35.65;;;14.27;;
34767;SDS011;21755;43.608;1.236;2022-10-30T02:28:56;31.15;;;13.80;;
34767;SDS011;21755;43.608;1.236;2022-10-30T02:31:22;31.15;;;14.00;;
34767;SDS011;21755;43.608;1.236;2022-10-30T02:33:48;32.03;;;13.98;;
34767;SDS011;21755;43.608;1.236;2022-10-30T02:36:14;36.85;;;14.32;;
34767;SDS011;21755;43.608;1.236;2022-10-30T02:38:40;28.25;;;14.20;;
34767;SDS011;21755;43.608;1.236;2022-10-30T02:41:07;34.80;;;14.15;;
34767;SDS011;21755;43.608;1.236;2022-10-30T02:43:33;29.27;;;13.15;;
34767;SDS011;21755;43.608;1.236;2022-10-30T02:45:58;38.25;;;12.98;;
34767;SDS011;21755;43.608;1.236;2022-10-30T02:48:24;35.22;;;14.27;;
34767;SDS011;21755;43.608;1.236;2022-10-30T02:50:50;36.85;;;14.80;;
34767;SDS011;21755;43.608;1.236;2022-10-30T02:53:16;39.60;;;14.27;;
34767;SDS011;21755;43.608;1.236;2022-10-30T02:55:42;33.88;;;14.60;;
34767;SDS011;21755;43.608;1.236;2022-10-30T02:58:08;30.83;;;13.15;;
34767;SDS011;21755;43.608;1.236;2022-10-30T03:00:34;29.10;;;13.10;;
34767;SDS011;21755;43.608;1.236;2022-10-30T03:02:59;37.83;;;13.40;;
34767;SDS011;21755;43.608;1.236;2022-10-30T03:05:25;43.78;;;15.00;;
34767;SDS011;21755;43.608;1.236;2022-10-30T03:07:52;32.80;;;13.57;;
34767;SDS011;21755;43.608;1.236;2022-10-30T03:10:19;34.78;;;14.10;;
34767;SDS011;21755;43.608;1.236;2022-10-30T03:12:44;45.17;;;14.07;;
34767;SDS011;21755;43.608;1.236;2022-10-30T03:15:10;42.47;;;14.50;;
34767;SDS011;21755;43.608;1.236;2022-10-30T03:17:36;39.03;;;15.52;;
34767;SDS011;21755;43.608;1.236;2022-10-30T03:20:02;38.03;;;13.95;;
34767;SDS011;21755;43.608;1.236;2022-10-30T03:22:28;36.88;;;13.90;;
34767;SDS011;21755;43.608;1.236;2022-10-30T03:24:54;44.40;;;15.00;;
34767;SDS011;21755;43.608;1.236;2022-10-30T03:27:20;44.83;;;14.07;;
34767;SDS011;21755;43.608;1.236;2022-10-30T03:29:46;34.15;;;14.15;;
34767;SDS011;21755;43.608;1.236;2022-10-30T03:32:11;39.20;;;13.48;;
34767;SDS011;21755;43.608;1.236;2022-10-30T03:34:37;34.03;;;14.40;;
34767;SDS011;21755;43.608;1.236;2022-10-30T03:37:03;43.35;;;14.50;;
34767;SDS011;21755;43.608;1.236;2022-10-30T03:39:29;34.50;;;13.30;;
34767;SDS011;21755;43.608;1.236;2022-10-30T03:41:55;31.35;;;14.60;;
34767;SDS011;21755;43.608;1.236;2022-10-30T03:44:21;43.60;;;14.23;;
34767;SDS011;21755;43.608;1.236;2022-10-30T03:46:47;36.90;;;13.73;;
34767;SDS011;21755;43.608;1.236;2022-10-30T03:49:13;33.67;;;14.70;;
34767;SDS011;21755;43.608;1.236;2022-10-30T03:51:39;29.30;;;14.55;;
34767;SDS011;21755;43.608;1.236;2022-10-30T03:54:05;33.88;;;15.10;;
34767;SDS011;21755;43.608;1.236;2022-10-30T03:56:30;36.47;;;14.02;;
34767;SDS011;21755;43.608;1.236;2022-10-30T03:58:56;37.63;;;13.75;;
34767;SDS011;21755;43.608;1.236;2022-10-30T04:01:22;40.78;;;14.27;;
34767;SDS011;21755;43.608;1.236;2022-10-30T04:03:48;36.92;;;13.80;;
34767;SDS011;21755;43.608;1.236;2022-10-30T04:06:14;42.38;;;14.50;;
34767;SDS011;21755;43.608;1.236;2022-10-30T04:08:40;32.75;;;13.20;;
34767;SDS011;21755;43.608;1.236;2022-10-30T04:11:08;34.65;;;13.65;;
34767;SDS011;21755;43.608;1.236;2022-10-30T04:13:35;39.05;;;13.88;;
34767;SDS011;21755;43.608;1.236;2022-10-30T04:16:01;38.80;;;14.25;;
34767;SDS011;21755;43.608;1.236;2022-10-30T04:18:28;38.03;;;13.57;;
34767;SDS011;21755;43.608;1.236;2022-10-30T04:20:54;37.42;;;13.40;;
34767;SDS011;21755;43.608;1.236;2022-10-30T04:23:23;35.92;;;13.75;;
34767;SDS011;21755;43.608;1.236;2022-10-30T04:25:48;34.97;;;12.90;;
34767;SDS011;21755;43.608;1.236;2022-10-30T04:28:15;30.05;;;13.10;;
34767;SDS011;21755;43.608;1.236;2022-10-30T04:30:41;35.65;;;13.88;;
34767;SDS011;21755;43.608;1.236;2022-10-30T04:33:11;29.45;;;13.38;;
34767;SDS011;21755;43.608;1.236;2022-10-30T04:35:38;45.15;;;14.32;;
34767;SDS011;21755;43.608;1.236;2022-10-30T04:38:06;27.48;;;12.65;;
34767;SDS011;21755;43.608;1.236;2022-10-30T04:40:35;31.45;;;13.70;;
34767;SDS011;21755;43.608;1.236;2022-10-30T04:43:02;35.00;;;13.73;;
34767;SDS011;21755;43.608;1.236;2022-10-30T04:45:29;32.15;;;12.93;;
34767;SDS011;21755;43.608;1.236;2022-10-30T04:48:00;36.80;;;12.45;;
34767;SDS011;21755;43.608;1.236;2022-10-30T04:50:26;37.63;;;13.30;;
34767;SDS011;21755;43.608;1.236;2022-10-30T04:53:02;36.83;;;12.90;;
34767;SDS011;21755;43.608;1.236;2022-10-30T04:55:34;30.45;;;14.63;;
34767;SDS011;21755;43.608;1.236;2022-10-30T04:58:00;33.25;;;12.57;;
34767;SDS011;21755;43.608;1.236;2022-10-30T05:00:29;27.20;;;12.90;;
34767;SDS011;21755;43.608;1.236;2022-10-30T05:02:59;37.40;;;13.32;;
34767;SDS011;21755;43.608;1.236;2022-10-30T05:05:25;31.63;;;13.05;;
34767;SDS011;21755;43.608;1.236;2022-10-30T05:07:52;38.20;;;13.70;;
34767;SDS011;21755;43.608;1.236;2022-10-30T05:10:18;34.30;;;13.82;;
34767;SDS011;21755;43.608;1.236;2022-10-30T05:12:44;29.38;;;12.82;;
34767;SDS011;21755;43.608;1.236;2022-10-30T05:15:11;35.20;;;13.85;;
34767;SDS011;21755;43.608;1.236;2022-10-30T05:17:38;31.15;;;13.77;;
34767;SDS011;21755;43.608;1.236;2022-10-30T05:20:04;32.08;;;13.32;;
34767;SDS011;21755;43.608;1.236;2022-10-30T05:22:31;34.33;;;13.20;;
34767;SDS011;21755;43.608;1.236;2022-10-30T05:24:57;41.15;;;13.45;;
34767;SDS011;21755;43.608;1.236;2022-10-30T05:27:23;25.27;;;12.85;;
34767;SDS011;21755;43.608;1.236;2022-10-30T05:29:48;35.15;;;12.32;;
34767;SDS011;21755;43.608;1.236;2022-10-30T05:32:14;34.00;;;12.35;;
34767;SDS011;21755;43.608;1.236;2022-10-30T05:34:40;31.20;;;13.65;;
34767;SDS011;21755;43.608;1.236;2022-10-30T05:37:06;24.50;;;13.07;;
34767;SDS011;21755;43.608;1.236;2022-10-30T05:39:32;33.35;;;13.90;;
34767;SDS011;21755;43.608;1.236;2022-10-30T05:41:58;30.60;;;12.65;;
34767;SDS011;21755;43.608;1.236;2022-10-30T05:44:24;26.08;;;12.35;;
34767;SDS011;21755;43.608;1.236;2022-10-30T05:46:50;28.70;;;13.20;;
34767;SDS011;21755;43.608;1.236;2022-10-30T05:49:16;32.47;;;12.82;;
34767;SDS011;21755;43.608;1.236;2022-10-30T05:51:42;35.72;;;13.60;;
34767;SDS011;21755;43.608;1.236;2022-10-30T05:54:08;29.08;;;12.75;;
34767;SDS011;21755;43.608;1.236;2022-10-30T05:56:34;30.13;;;12.50;;
34767;SDS011;21755;43.608;1.236;2022-10-30T05:58:59;22.65;;;12.25;;
34767;SDS011;21755;43.608;1.236;2022-10-30T06:01:25;27.08;;;11.52;;
34767;SDS011;21755;43.608;1.236;2022-10-30T06:03:51;34.92;;;12.77;;
34767;SDS011;21755;43.608;1.236;2022-10-30T06:06:17;33.72;;;12.30;;
34767;SDS011;21755;43.608;1.236;2022-10-30T06:08:43;29.25;;;12.18;;
34767;SDS011;21755;43.608;1.236;2022-10-30T06:11:09;23.02;;;13.50;;
34767;SDS011;21755;43.608;1.236;2022-10-30T06:13:35;32.63;;;12.45;;
34767;SDS011;21755;43.608;1.236;2022-10-30T06:16:00;33.15;;;13.30;;
34767;SDS011;21755;43.608;1.236;2022-10-30T06:18:26;28.80;;;13.20;;
34767;SDS011;21755;43.608;1.236;2022-10-30T06:20:55;37.85;;;12.30;;
34767;SDS011;21755;43.608;1.236;2022-10-30T06:23:21;32.90;;;12.20;;
34767;SDS011;21755;43.608;1.236;2022-10-30T06:25:47;38.20;;;12.30;;
34767;SDS011;21755;43.608;1.236;2022-10-30T06:28:13;37.33;;;12.32;;
34767;SDS011;21755;43.608;1.236;2022-10-30T06:30:39;33.30;;;12.25;;
34767;SDS011;21755;43.608;1.236;2022-10-30T06:33:05;33.28;;;11.45;;
34767;SDS011;21755;43.608;1.236;2022-10-30T06:35:31;31.52;;;12.77;;
34767;SDS011;21755;43.608;1.236;2022-10-30T06:37:57;34.78;;;12.65;;
34767;SDS011;21755;43.608;1.236;2022-10-30T06:40:24;28.88;;;11.65;;
34767;SDS011;21755;43.608;1.236;2022-10-30T06:42:51;33.00;;;11.82;;
34767;SDS011;21755;43.608;1.236;2022-10-30T06:45:18;34.90;;;12.23;;
34767;SDS011;21755;43.608;1.236;2022-10-30T06:47:45;30.75;;;12.57;;
34767;SDS011;21755;43.608;1.236;2022-10-30T06:50:13;26.73;;;12.30;;
34767;SDS011;21755;43.608;1.236;2022-10-30T06:52:41;35.60;;;12.65;;
34767;SDS011;21755;43.608;1.236;2022-10-30T06:55:07;30.70;;;11.77;;
34767;SDS011;21755;43.608;1.236;2022-10-30T06:57:33;33.33;;;11.70;;
34767;SDS011;21755;43.608;1.236;2022-10-30T06:59:59;28.00;;;11.88;;
34767;SDS011;21755;43.608;1.236;2022-10-30T07:02:26;29.05;;;11.57;;
34767;SDS011;21755;43.608;1.236;2022-10-30T07:04:55;32.17;;;13.20;;
34767;SDS011;21755;43.608;1.236;2022-10-30T07:07:20;40.47;;;11.77;;
34767;SDS011;21755;43.608;1.236;2022-10-30T07:09:49;34.58;;;12.32;;
34767;SDS011;21755;43.608;1.236;2022-10-30T07:12:15;31.77;;;12.15;;
34767;SDS011;21755;43.608;1.236;2022-10-30T07:14:41;26.08;;;10.65;;
34767;SDS011;21755;43.608;1.236;2022-10-30T07:17:07;35.72;;;12.48;;
34767;SDS011;21755;43.608;1.236;2022-10-30T07:19:33;34.80;;;11.80;;
34767;SDS011;21755;43.608;1.236;2022-10-30T07:22:00;34.50;;;12.18;;
34767;SDS011;21755;43.608;1.236;2022-10-30T07:24:26;25.98;;;11.00;;
34767;SDS011;21755;43.608;1.236;2022-10-30T07:26:53;26.15;;;11.45;;
34767;SDS011;21755;43.608;1.236;2022-10-30T07:29:19;37.33;;;11.40;;
34767;SDS011;21755;43.608;1.236;2022-10-30T07:31:45;28.42;;;10.02;;
34767;SDS011;21755;43.608;1.236;2022-10-30T07:34:12;34.45;;;12.10;;
34767;SDS011;21755;43.608;1.236;2022-10-30T07:36:38;30.17;;;11.10;;
34767;SDS011;21755;43.608;1.236;2022-10-30T07:39:03;35.20;;;11.38;;
34767;SDS011;21755;43.608;1.236;2022-10-30T07:41:29;32.05;;;11.05;;
34767;SDS011;21755;43.608;1.236;2022-10-30T07:43:55;28.77;;;10.63;;
34767;SDS011;21755;43.608;1.236;2022-10-30T07:46:21;28.25;;;10.18;;
34767;SDS011;21755;43.608;1.236;2022-10-30T07:48:47;24.23;;;10.40;;
34767;SDS011;21755;43.608;1.236;2022-10-30T07:51:13;27.88;;;9.95;;
34767;SDS011;21755;43.608;1.236;2022-10-30T07:53:39;36.70;;;10.52;;
34767;SDS011;21755;43.608;1.236;2022-10-30T07:56:05;20.13;;;9.60;;
34767;SDS011;21755;43.608;1.236;2022-10-30T07:58:31;23.98;;;10.27;;
34767;SDS011;21755;43.608;1.236;2022-10-30T08:00:57;33.60;;;10.60;;
34767;SDS011;21755;43.608;1.236;2022-10-30T08:03:23;27.83;;;10.40;;
34767;SDS011;21755;43.608;1.236;2022-10-30T08:05:49;24.98;;;9.90;;
34767;SDS011;21755;43.608;1.236;2022-10-30T08:08:14;27.55;;;9.13;;
34767;SDS011;21755;43.608;1.236;2022-10-30T08:10:40;25.80;;;9.45;;
34767;SDS011;21755;43.608;1.236;2022-10-30T08:13:06;25.02;;;9.38;;
34767;SDS011;21755;43.608;1.236;2022-10-30T08:15:32;24.08;;;9.70;;
34767;SDS011;21755;43.608;1.236;2022-10-30T08:17:58;17.55;;;8.73;;
34767;SDS011;21755;43.608;1.236;2022-10-30T08:20:24;27.60;;;9.02;;
34767;SDS011;21755;43.608;1.236;2022-10-30T08:22:53;25.70;;;10.07;;
34767;SDS011;21755;43.608;1.236;2022-10-30T08:25:22;37.80;;;10.05;;
34767;SDS011;21755;43.608;1.236;2022-10-30T08:27:53;21.52;;;7.97;;
34767;SDS011;21755;43.608;1.236;2022-10-30T08:30:20;24.83;;;9.57;;
34767;SDS011;21755;43.608;1.236;2022-10-30T08:32:46;27.13;;;9.55;;
34767;SDS011;21755;43.608;1.236;2022-10-30T08:35:12;27.27;;;9.48;;
34767;SDS011;21755;43.608;1.236;2022-10-30T08:37:40;19.52;;;7.93;;
34767;SDS011;21755;43.608;1.236;2022-10-30T08:40:08;23.90;;;9.85;;
34767;SDS011;21755;43.608;1.236;2022-10-30T08:42:35;25.48;;;8.60;;
34767;SDS011;21755;43.608;1.236;2022-10-30T08:45:01;21.52;;;8.40;;
34767;SDS011;21755;43.608;1.236;2022-10-30T08:47:27;23.92;;;9.00;;
34767;SDS011;21755;43.608;1.236;2022-10-30T08:49:53;22.90;;;8.93;;
34767;SDS011;21755;43.608;1.236;2022-10-30T08:52:18;20.08;;;8.60;;
34767;SDS011;21755;43.608;1.236;2022-10-30T08:54:44;19.98;;;8.57;;
34767;SDS011;21755;43.608;1.236;2022-10-30T08:57:10;28.50;;;9.07;;
34767;SDS011;21755;43.608;1.236;2022-10-30T08:59:36;23.92;;;8.65;;
34767;SDS011;21755;43.608;1.236;2022-10-30T09:02:02;23.02;;;8.77;;
34767;SDS011;21755;43.608;1.236;2022-10-30T09:04:28;23.17;;;8.38;;
34767;SDS011;21755;43.608;1.236;2022-10-30T09:06:54;25.33;;;8.02;;
34767;SDS011;21755;43.608;1.236;2022-10-30T09:09:19;27.23;;;8.60;;
34767;SDS011;21755;43.608;1.236;2022-10-30T09:11:46;28.60;;;9.27;;
34767;SDS011;21755;43.608;1.236;2022-10-30T09:14:13;25.75;;;8.50;;
34767;SDS011;21755;43.608;1.236;2022-10-30T09:16:39;30.50;;;8.25;;
34767;SDS011;21755;43.608;1.236;2022-10-30T09:19:04;22.45;;;7.35;;
34767;SDS011;21755;43.608;1.236;2022-10-30T09:21:30;29.92;;;8.13;;
34767;SDS011;21755;43.608;1.236;2022-10-30T09:23:56;23.02;;;8.27;;
34767;SDS011;21755;43.608;1.236;2022-10-30T09:26:22;19.48;;;8.35;;
34767;SDS011;21755;43.608;1.236;2022-10-30T09:28:48;34.20;;;8.35;;
34767;SDS011;21755;43.608;1.236;2022-10-30T09:31:14;21.58;;;7.93;;
34767;SDS011;21755;43.608;1.236;2022-10-30T09:33:40;28.45;;;8.52;;
34767;SDS011;21755;43.608;1.236;2022-10-30T09:36:06;13.02;;;7.57;;
34767;SDS011;21755;43.608;1.236;2022-10-30T09:38:32;26.58;;;8.43;;
34767;SDS011;21755;43.608;1.236;2022-10-30T09:41:42;25.92;;;8.25;;
34767;SDS011;21755;43.608;1.236;2022-10-30T09:44:18;24.33;;;8.82;;
34767;SDS011;21755;43.608;1.236;2022-10-30T09:46:57;25.48;;;7.40;;
34767;SDS011;21755;43.608;1.236;2022-10-30T09:57:56;25.55;;;7.93;;
34767;SDS011;21755;43.608;1.236;2022-10-30T10:00:35;18.90;;;7.57;;
34767;SDS011;21755;43.608;1.236;2022-10-30T10:08:08;25.08;;;7.57;;
34767;SDS011;21755;43.608;1.236;2022-10-30T10:10:44;16.42;;;7.28;;
34767;SDS011;21755;43.608;1.236;2022-10-30T10:13:24;19.55;;;7.38;;
34767;SDS011;21755;43.608;1.236;2022-10-30T10:16:06;20.60;;;7.78;;
34767;SDS011;21755;43.608;1.236;2022-10-30T10:18:47;27.95;;;7.72;;
34767;SDS011;21755;43.608;1.236;2022-10-30T10:21:23;28.13;;;8.10;;
34767;SDS011;21755;43.608;1.236;2022-10-30T10:23:55;16.70;;;8.00;;
34767;SDS011;21755;43.608;1.236;2022-10-30T10:37:47;25.83;;;8.70;;
34767;SDS011;21755;43.608;1.236;2022-10-30T10:43:40;25.02;;;7.90;;
34767;SDS011;21755;43.608;1.236;2022-10-30T10:46:33;19.48;;;6.78;;
34767;SDS011;21755;43.608;1.236;2022-10-30T10:52:09;22.90;;;8.15;;
34767;SDS011;21755;43.608;1.236;2022-10-30T10:57:24;25.02;;;7.72;;
34767;SDS011;21755;43.608;1.236;2022-10-30T11:00:01;26.20;;;6.75;;
34767;SDS011;21755;43.608;1.236;2022-10-30T11:02:33;30.27;;;6.80;;
34767;SDS011;21755;43.608;1.236;2022-10-30T11:05:07;24.02;;;5.78;;
34767;SDS011;21755;43.608;1.236;2022-10-30T11:07:57;18.83;;;7.05;;
34767;SDS011;21755;43.608;1.236;2022-10-30T11:10:28;21.15;;;7.13;;
34767;SDS011;21755;43.608;1.236;2022-10-30T11:12:54;22.27;;;6.65;;
34767;SDS011;21755;43.608;1.236;2022-10-30T11:18:06;20.90;;;6.78;;
34767;SDS011;21755;43.608;1.236;2022-10-30T11:25:55;23.10;;;6.68;;
34767;SDS011;21755;43.608;1.236;2022-10-30T11:28:44;29.10;;;7.32;;
34767;SDS011;21755;43.608;1.236;2022-10-30T11:31:21;21.70;;;6.72;;
34767;SDS011;21755;43.608;1.236;2022-10-30T11:33:54;19.63;;;6.75;;
34767;SDS011;21755;43.608;1.236;2022-10-30T11:36:24;22.50;;;7.03;;
34767;SDS011;21755;43.608;1.236;2022-10-30T11:38:51;14.15;;;6.45;;
34767;SDS011;21755;43.608;1.236;2022-10-30T11:41:20;26.13;;;7.75;;
34767;SDS011;21755;43.608;1.236;2022-10-30T11:43:46;23.25;;;6.90;;
34767;SDS011;21755;43.608;1.236;2022-10-30T11:46:17;22.60;;;6.63;;
34767;SDS011;21755;43.608;1.236;2022-10-30T11:48:46;20.63;;;6.85;;
34767;SDS011;21755;43.608;1.236;2022-10-30T11:51:28;20.67;;;7.07;;
34767;SDS011;21755;43.608;1.236;2022-10-30T11:53:59;20.60;;;6.70;;
34767;SDS011;21755;43.608;1.236;2022-10-30T11:56:26;25.30;;;7.68;;
34767;SDS011;21755;43.608;1.236;2022-10-30T11:58:54;20.75;;;6.45;;
34767;SDS011;21755;43.608;1.236;2022-10-30T12:01:23;24.98;;;6.50;;
34767;SDS011;21755;43.608;1.236;2022-10-30T12:03:50;20.40;;;5.95;;
34767;SDS011;21755;43.608;1.236;2022-10-30T12:09:29;19.55;;;6.22;;
34767;SDS011;21755;43.608;1.236;2022-10-30T12:11:43;21.58;;;6.50;;
34767;SDS011;21755;43.608;1.236;2022-10-30T12:14:17;16.45;;;6.05;;
34767;SDS011;21755;43.608;1.236;2022-10-30T12:16:45;21.20;;;6.22;;
34767;SDS011;21755;43.608;1.236;2022-10-30T12:19:14;20.63;;;7.07;;
34767;SDS011;21755;43.608;1.236;2022-10-30T12:21:48;21.92;;;6.07;;
34767;SDS011;21755;43.608;1.236;2022-10-30T12:24:19;21.60;;;6.60;;
34767;SDS011;21755;43.608;1.236;2022-10-30T12:26:53;20.75;;;5.78;;
34767;SDS011;21755;43.608;1.236;2022-10-30T12:29:21;30.00;;;6.68;;
34767;SDS011;21755;43.608;1.236;2022-10-30T12:31:53;20.10;;;6.28;;
34767;SDS011;21755;43.608;1.236;2022-10-30T12:34:46;28.27;;;6.72;;
34767;SDS011;21755;43.608;1.236;2022-10-30T12:37:54;23.98;;;6.57;;
34767;SDS011;21755;43.608;1.236;2022-10-30T12:40:54;18.83;;;6.75;;
34767;SDS011;21755;43.608;1.236;2022-10-30T12:43:25;22.90;;;6.07;;
34767;SDS011;21755;43.608;1.236;2022-10-30T12:45:52;27.45;;;6.70;;
34767;SDS011;21755;43.608;1.236;2022-10-30T12:51:06;21.70;;;5.85;;
34767;SDS011;21755;43.608;1.236;2022-10-30T12:53:54;24.30;;;6.53;;
34767;SDS011;21755;43.608;1.236;2022-10-30T12:56:31;16.73;;;6.72;;
34767;SDS011;21755;43.608;1.236;2022-10-30T12:59:10;24.15;;;7.35;;
34767;SDS011;21755;43.608;1.236;2022-10-30T13:01:43;15.82;;;6.03;;
34767;SDS011;21755;43.608;1.236;2022-10-30T13:04:37;22.35;;;6.75;;
34767;SDS011;21755;43.608;1.236;2022-10-30T13:07:23;20.67;;;6.10;;
34767;SDS011;21755;43.608;1.236;2022-10-30T13:10:18;18.95;;;6.80;;
34767;SDS011;21755;43.608;1.236;2022-10-30T13:12:47;18.20;;;6.10;;
34767;SDS011;21755;43.608;1.236;2022-10-30T13:15:37;21.45;;;6.60;;
34767;SDS011;21755;43.608;1.236;2022-10-30T13:18:27;19.10;;;6.57;;
34767;SDS011;21755;43.608;1.236;2022-10-30T13:21:05;18.10;;;6.95;;
34767;SDS011;21755;43.608;1.236;2022-10-30T13:23:51;17.10;;;6.45;;
34767;SDS011;21755;43.608;1.236;2022-10-30T13:26:40;18.40;;;5.97;;
34767;SDS011;21755;43.608;1.236;2022-10-30T13:29:28;18.48;;;5.85;;
34767;SDS011;21755;43.608;1.236;2022-10-30T13:37:58;16.77;;;5.82;;
34767;SDS011;21755;43.608;1.236;2022-10-30T13:46:23;23.52;;;7.03;;
34767;SDS011;21755;43.608;1.236;2022-10-30T13:48:59;25.52;;;6.47;;
34767;SDS011;21755;43.608;1.236;2022-10-30T13:51:40;24.85;;;6.68;;
34767;SDS011;21755;43.608;1.236;2022-10-30T13:54:21;25.65;;;6.32;;
34767;SDS011;21755;43.608;1.236;2022-10-30T13:56:51;19.40;;;5.65;;
34767;SDS011;21755;43.608;1.236;2022-10-30T14:05:15;29.80;;;7.05;;
34767;SDS011;21755;43.608;1.236;2022-10-30T14:08:17;23.52;;;5.53;;
34767;SDS011;21755;43.608;1.236;2022-10-30T14:10:46;24.75;;;6.00;;
34767;SDS011;21755;43.608;1.236;2022-10-30T14:13:21;21.15;;;6.35;;
34767;SDS011;21755;43.608;1.236;2022-10-30T14:16:00;21.15;;;6.15;;
34767;SDS011;21755;43.608;1.236;2022-10-30T14:18:31;21.80;;;6.43;;
34767;SDS011;21755;43.608;1.236;2022-10-30T14:26:51;18.98;;;5.53;;
34767;SDS011;21755;43.608;1.236;2022-10-30T14:39:51;28.95;;;6.78;;
34767;SDS011;21755;43.608;1.236;2022-10-30T14:45:22;20.05;;;5.57;;
34767;SDS011;21755;43.608;1.236;2022-10-30T14:56:40;19.23;;;6.85;;
34767;SDS011;21755;43.608;1.236;2022-10-30T15:07:42;17.48;;;6.60;;
34767;SDS011;21755;43.608;1.236;2022-10-30T15:15:20;17.52;;;5.85;;
34767;SDS011;21755;43.608;1.236;2022-10-30T15:17:47;23.77;;;5.88;;
34767;SDS011;21755;43.608;1.236;2022-10-30T15:20:22;28.38;;;6.05;;
34767;SDS011;21755;43.608;1.236;2022-10-30T15:22:53;25.58;;;6.05;;
34767;SDS011;21755;43.608;1.236;2022-10-30T15:25:23;18.95;;;6.35;;
34767;SDS011;21755;43.608;1.236;2022-10-30T15:27:55;24.90;;;6.10;;
34767;SDS011;21755;43.608;1.236;2022-10-30T15:30:22;17.45;;;5.25;;
34767;SDS011;21755;43.608;1.236;2022-10-30T15:32:50;21.17;;;5.93;;
34767;SDS011;21755;43.608;1.236;2022-10-30T15:35:19;32.92;;;6.20;;
34767;SDS011;21755;43.608;1.236;2022-10-30T15:40:34;23.27;;;6.63;;
34767;SDS011;21755;43.608;1.236;2022-10-30T15:43:03;19.38;;;6.70;;
34767;SDS011;21755;43.608;1.236;2022-10-30T15:48:06;20.08;;;6.78;;
34767;SDS011;21755;43.608;1.236;2022-10-30T15:50:53;18.75;;;5.68;;
34767;SDS011;21755;43.608;1.236;2022-10-30T15:53:56;23.42;;;6.68;;
34767;SDS011;21755;43.608;1.236;2022-10-30T15:56:25;19.67;;;5.68;;
34767;SDS011;21755;43.608;1.236;2022-10-30T15:58:56;24.27;;;5.60;;
34767;SDS011;21755;43.608;1.236;2022-10-30T16:01:35;18.23;;;6.20;;
34767;SDS011;21755;43.608;1.236;2022-10-30T16:04:13;20.90;;;5.72;;
34767;SDS011;21755;43.608;1.236;2022-10-30T16:06:46;26.88;;;6.45;;
34767;SDS011;21755;43.608;1.236;2022-10-30T16:09:22;26.38;;;5.43;;
34767;SDS011;21755;43.608;1.236;2022-10-30T16:11:50;19.48;;;5.32;;
34767;SDS011;21755;43.608;1.236;2022-10-30T16:14:22;22.33;;;6.05;;
34767;SDS011;21755;43.608;1.236;2022-10-30T16:16:50;17.90;;;5.10;;
34767;SDS011;21755;43.608;1.236;2022-10-30T16:19:21;22.98;;;5.55;;
34767;SDS011;21755;43.608;1.236;2022-10-30T16:22:10;15.17;;;6.03;;
34767;SDS011;21755;43.608;1.236;2022-10-30T16:24:39;28.65;;;5.72;;
34767;SDS011;21755;43.608;1.236;2022-10-30T16:27:12;21.55;;;5.68;;
34767;SDS011;21755;43.608;1.236;2022-10-30T16:29:47;19.55;;;5.30;;
34767;SDS011;21755;43.608;1.236;2022-10-30T16:32:16;23.27;;;6.43;;
34767;SDS011;21755;43.608;1.236;2022-10-30T16:34:44;24.65;;;5.90;;
34767;SDS011;21755;43.608;1.236;2022-10-30T16:37:13;25.42;;;6.05;;
34767;SDS011;21755;43.608;1.236;2022-10-30T16:39:43;16.88;;;6.00;;
34767;SDS011;21755;43.608;1.236;2022-10-30T16:42:23;26.63;;;6.45;;
34767;SDS011;21755;43.608;1.236;2022-10-30T16:44:50;21.33;;;5.80;;
34767;SDS011;21755;43.608;1.236;2022-10-30T16:47:38;24.33;;;5.20;;
34767;SDS011;21755;43.608;1.236;2022-10-30T16:50:15;22.60;;;5.63;;
34767;SDS011;21755;43.608;1.236;2022-10-30T16:52:41;20.52;;;6.13;;
34767;SDS011;21755;43.608;1.236;2022-10-30T16:55:12;18.92;;;6.00;;
34767;SDS011;21755;43.608;1.236;2022-10-30T16:57:44;25.60;;;5.65;;
34767;SDS011;21755;43.608;1.236;2022-10-30T17:00:24;19.15;;;5.97;;
34767;SDS011;21755;43.608;1.236;2022-10-30T17:02:58;19.45;;;5.35;;